DLH11V LFMN-EDDM
Flight info
| Callsign | DLH11V |
|---|---|
| Flight time | 1h 7m |
| Altitude | 32000 |
| Route | BASIP DCT ANAKI DCT TAGIP DCT GUNGO DCT IVKAL T102 NINUR T101 BETOS BETOS1A |
| Aircraft | A320/M-SDE2E3FGIJ1LORWXYZ/HB1 |
Departure
| Time | 2026-05-04 13:27 |
|---|---|
| Airport | Nice-Côte d'Azur Airport (LFMN) |
Arrival
| Time | 2026-05-04 14:34 |
|---|---|
| Airport | Munich Airport (EDDM) |
| Time | Latitude | Longitude | Altitude | Speed | Heading |
|---|---|---|---|---|---|
| 2026-05-04 12:48 | 43.66505 | 7.21533 | 21 ft | 0 kts | 315° |
| 2026-05-04 13:14 | 43.66489 | 7.21555 | 21 ft | 4 kts | 315° |
| 2026-05-04 13:14 | 43.66474 | 7.21576 | 21 ft | 4 kts | 306° |
| 2026-05-04 13:14 | 43.66466 | 7.21604 | 22 ft | 4 kts | 243° |
| 2026-05-04 13:14 | 43.66480 | 7.21626 | 25 ft | 2 kts | 225° |
| 2026-05-04 13:15 | 43.66481 | 7.21627 | 25 ft | 0 kts | 225° |
| 2026-05-04 13:17 | 43.66476 | 7.21621 | 26 ft | 2 kts | 225° |
| 2026-05-04 13:17 | 43.66463 | 7.21603 | 22 ft | 3 kts | 225° |
| 2026-05-04 13:18 | 43.66446 | 7.21579 | 21 ft | 4 kts | 225° |
| 2026-05-04 13:18 | 43.66427 | 7.21554 | 21 ft | 4 kts | 225° |
| 2026-05-04 13:18 | 43.66407 | 7.21530 | 21 ft | 4 kts | 213° |
| 2026-05-04 13:18 | 43.66387 | 7.21523 | 21 ft | 2 kts | 184° |
| 2026-05-04 13:19 | 43.66372 | 7.21530 | 21 ft | 4 kts | 142° |
| 2026-05-04 13:19 | 43.66356 | 7.21560 | 21 ft | 8 kts | 137° |
| 2026-05-04 13:19 | 43.66278 | 7.21594 | 21 ft | 9 kts | 235° |
| 2026-05-04 13:19 | 43.66238 | 7.21536 | 21 ft | 8 kts | 225° |
| 2026-05-04 13:20 | 43.66200 | 7.21485 | 21 ft | 7 kts | 225° |
| 2026-05-04 13:20 | 43.66167 | 7.21440 | 21 ft | 6 kts | 225° |
| 2026-05-04 13:20 | 43.66139 | 7.21401 | 21 ft | 5 kts | 225° |
| 2026-05-04 13:20 | 43.66102 | 7.21351 | 21 ft | 10 kts | 225° |
| 2026-05-04 13:21 | 43.66043 | 7.21270 | 21 ft | 14 kts | 225° |
| 2026-05-04 13:21 | 43.65970 | 7.21171 | 21 ft | 15 kts | 224° |
| 2026-05-04 13:21 | 43.65892 | 7.21066 | 21 ft | 16 kts | 224° |
| 2026-05-04 13:21 | 43.65815 | 7.20955 | 21 ft | 16 kts | 225° |
| 2026-05-04 13:22 | 43.65736 | 7.20847 | 21 ft | 16 kts | 224° |
| 2026-05-04 13:22 | 43.65655 | 7.20739 | 21 ft | 16 kts | 225° |
| 2026-05-04 13:22 | 43.65563 | 7.20678 | 21 ft | 15 kts | 170° |
| 2026-05-04 13:22 | 43.65455 | 7.20708 | 20 ft | 17 kts | 172° |
| 2026-05-04 13:23 | 43.65334 | 7.20736 | 21 ft | 19 kts | 172° |
| 2026-05-04 13:23 | 43.65223 | 7.20678 | 21 ft | 17 kts | 220° |
| 2026-05-04 13:23 | 43.65142 | 7.20566 | 21 ft | 16 kts | 225° |
| 2026-05-04 13:23 | 43.65065 | 7.20463 | 21 ft | 15 kts | 225° |
| 2026-05-04 13:24 | 43.64994 | 7.20368 | 21 ft | 14 kts | 225° |
| 2026-05-04 13:24 | 43.64931 | 7.20278 | 21 ft | 13 kts | 225° |
| 2026-05-04 13:24 | 43.64869 | 7.20194 | 21 ft | 12 kts | 225° |
| 2026-05-04 13:25 | 43.64748 | 7.20165 | 22 ft | 10 kts | 137° |
| 2026-05-04 13:25 | 43.64704 | 7.20236 | 23 ft | 10 kts | 120° |
| 2026-05-04 13:25 | 43.64724 | 7.20317 | 24 ft | 10 kts | 43° |
| 2026-05-04 13:25 | 43.64754 | 7.20357 | 23 ft | 0 kts | 45° |
| 2026-05-04 13:26 | 43.64911 | 7.20577 | 24 ft | 71 kts | 45° |
| 2026-05-04 13:26 | 43.65411 | 7.21264 | 27 ft | 131 kts | 45° |
| 2026-05-04 13:26 | 43.66138 | 7.22290 | 365 ft | 153 kts | 49° |
| 2026-05-04 13:27 | 43.66785 | 7.23427 | 1078 ft | 151 kts | 72° |
| 2026-05-04 13:27 | 43.66897 | 7.24887 | 1664 ft | 165 kts | 98° |
| 2026-05-04 13:27 | 43.66350 | 7.26405 | 2100 ft | 192 kts | 130° |
| 2026-05-04 13:27 | 43.65360 | 7.27773 | 2652 ft | 210 kts | 133° |
| 2026-05-04 13:28 | 43.64314 | 7.29262 | 3557 ft | 219 kts | 131° |
| 2026-05-04 13:28 | 43.63394 | 7.30862 | 4931 ft | 210 kts | 111° |
| 2026-05-04 13:28 | 43.63239 | 7.32848 | 5904 ft | 219 kts | 79° |
| 2026-05-04 13:28 | 43.63756 | 7.34847 | 6873 ft | 223 kts | 71° |
| 2026-05-04 13:29 | 43.64319 | 7.36876 | 7732 ft | 230 kts | 72° |
| 2026-05-04 13:29 | 43.64882 | 7.38977 | 8555 ft | 237 kts | 73° |
| 2026-05-04 13:29 | 43.65451 | 7.41140 | 9376 ft | 243 kts | 73° |
| 2026-05-04 13:29 | 43.66031 | 7.43366 | 10175 ft | 249 kts | 74° |
| 2026-05-04 13:30 | 43.66620 | 7.45638 | 10999 ft | 254 kts | 74° |
| 2026-05-04 13:30 | 43.67221 | 7.47964 | 11908 ft | 260 kts | 73° |
| 2026-05-04 13:30 | 43.67841 | 7.50361 | 12572 ft | 274 kts | 73° |
| 2026-05-04 13:30 | 43.68522 | 7.52944 | 12927 ft | 298 kts | 72° |
| 2026-05-04 13:31 | 43.69265 | 7.55740 | 13292 ft | 322 kts | 72° |
| 2026-05-04 13:31 | 43.70057 | 7.58713 | 13626 ft | 345 kts | 71° |
| 2026-05-04 13:31 | 43.70907 | 7.61890 | 14101 ft | 358 kts | 71° |
| 2026-05-04 13:31 | 43.71779 | 7.65156 | 14703 ft | 366 kts | 71° |
| 2026-05-04 13:32 | 43.72664 | 7.68473 | 15406 ft | 369 kts | 71° |
| 2026-05-04 13:32 | 43.73793 | 7.71689 | 16071 ft | 376 kts | 58° |
| 2026-05-04 13:32 | 43.75430 | 7.74540 | 16735 ft | 381 kts | 49° |
| 2026-05-04 13:32 | 43.77205 | 7.77294 | 17441 ft | 385 kts | 49° |
| 2026-05-04 13:33 | 43.78994 | 7.80079 | 18138 ft | 389 kts | 49° |
| 2026-05-04 13:33 | 43.80797 | 7.82897 | 18761 ft | 393 kts | 49° |
| 2026-05-04 13:33 | 43.82595 | 7.85712 | 19355 ft | 397 kts | 49° |
| 2026-05-04 13:33 | 43.84429 | 7.88588 | 19967 ft | 400 kts | 49° |
| 2026-05-04 13:34 | 43.86274 | 7.91491 | 20601 ft | 403 kts | 49° |
| 2026-05-04 13:34 | 43.88134 | 7.94427 | 21164 ft | 407 kts | 49° |
| 2026-05-04 13:34 | 43.89816 | 7.97590 | 21729 ft | 410 kts | 59° |
| 2026-05-04 13:34 | 43.91229 | 8.01028 | 22357 ft | 411 kts | 61° |
| 2026-05-04 13:35 | 43.92639 | 8.04494 | 22936 ft | 414 kts | 61° |
| 2026-05-04 13:35 | 43.95494 | 8.11499 | 24045 ft | 420 kts | 60° |
| 2026-05-04 13:35 | 43.96918 | 8.14992 | 24492 ft | 423 kts | 60° |
| 2026-05-04 13:36 | 43.98371 | 8.18559 | 24899 ft | 427 kts | 60° |
| 2026-05-04 13:36 | 43.99839 | 8.22166 | 25307 ft | 431 kts | 60° |
| 2026-05-04 13:36 | 44.01316 | 8.25804 | 25723 ft | 434 kts | 60° |
| 2026-05-04 13:36 | 44.02804 | 8.29477 | 26124 ft | 438 kts | 60° |
| 2026-05-04 13:37 | 44.04302 | 8.33182 | 26524 ft | 442 kts | 60° |
| 2026-05-04 13:37 | 44.05814 | 8.36924 | 26932 ft | 445 kts | 60° |
| 2026-05-04 13:37 | 44.07336 | 8.40689 | 27352 ft | 448 kts | 60° |
| 2026-05-04 13:37 | 44.08350 | 8.43196 | 27614 ft | 450 kts | 60° |
| 2026-05-04 13:38 | 44.10388 | 8.48246 | 28117 ft | 455 kts | 60° |
| 2026-05-04 13:38 | 44.11941 | 8.52098 | 28529 ft | 457 kts | 60° |
| 2026-05-04 13:38 | 44.13499 | 8.55967 | 28918 ft | 460 kts | 60° |
| 2026-05-04 13:38 | 44.15067 | 8.59878 | 29296 ft | 464 kts | 60° |
| 2026-05-04 13:39 | 44.16638 | 8.63816 | 29665 ft | 467 kts | 60° |
| 2026-05-04 13:39 | 44.18227 | 8.67779 | 30030 ft | 470 kts | 58° |
| 2026-05-04 13:39 | 44.20092 | 8.71527 | 30356 ft | 472 kts | 49° |
| 2026-05-04 13:39 | 44.22331 | 8.74859 | 30690 ft | 471 kts | 40° |
| 2026-05-04 13:40 | 44.23989 | 8.76801 | 30914 ft | 470 kts | 35° |
| 2026-05-04 13:40 | 44.26572 | 8.79609 | 31230 ft | 472 kts | 35° |
| 2026-05-04 13:40 | 44.30013 | 8.83356 | 31688 ft | 474 kts | 36° |
| 2026-05-04 13:40 | 44.32607 | 8.86194 | 32030 ft | 475 kts | 36° |
| 2026-05-04 13:41 | 44.35201 | 8.89042 | 32124 ft | 470 kts | 36° |
| 2026-05-04 13:41 | 44.36878 | 8.90890 | 32138 ft | 458 kts | 36° |
| 2026-05-04 13:41 | 44.39337 | 8.93601 | 32137 ft | 444 kts | 36° |
| 2026-05-04 13:42 | 44.46524 | 9.01511 | 32134 ft | 436 kts | 36° |
| 2026-05-04 13:42 | 44.52062 | 9.07618 | 32130 ft | 436 kts | 36° |
| 2026-05-04 13:43 | 44.56045 | 9.12014 | 32119 ft | 433 kts | 36° |
| 2026-05-04 13:43 | 44.60737 | 9.17210 | 32106 ft | 432 kts | 36° |
| 2026-05-04 13:44 | 44.65448 | 9.22450 | 32105 ft | 432 kts | 36° |
| 2026-05-04 13:44 | 44.70148 | 9.27689 | 32101 ft | 431 kts | 36° |
| 2026-05-04 13:45 | 44.74849 | 9.32938 | 32098 ft | 431 kts | 36° |
| 2026-05-04 13:45 | 44.79512 | 9.38151 | 32093 ft | 431 kts | 36° |
| 2026-05-04 13:46 | 44.84200 | 9.43393 | 32105 ft | 430 kts | 36° |
| 2026-05-04 13:46 | 44.88884 | 9.48648 | 32102 ft | 430 kts | 37° |
| 2026-05-04 13:47 | 44.93564 | 9.53916 | 32105 ft | 430 kts | 37° |
| 2026-05-04 13:47 | 44.98245 | 9.59194 | 32095 ft | 430 kts | 37° |
| 2026-05-04 13:48 | 45.02876 | 9.64438 | 32091 ft | 429 kts | 37° |
| 2026-05-04 13:48 | 45.07522 | 9.69709 | 32092 ft | 428 kts | 37° |
| 2026-05-04 13:49 | 45.12163 | 9.74969 | 32095 ft | 427 kts | 37° |
| 2026-05-04 13:49 | 45.16803 | 9.80244 | 32101 ft | 427 kts | 38° |
| 2026-05-04 13:50 | 45.21400 | 9.85479 | 32088 ft | 427 kts | 38° |
| 2026-05-04 13:50 | 45.26025 | 9.90752 | 32081 ft | 427 kts | 38° |
| 2026-05-04 13:51 | 45.30648 | 9.96041 | 32074 ft | 427 kts | 38° |
| 2026-05-04 13:51 | 45.35271 | 10.01349 | 32079 ft | 427 kts | 38° |
| 2026-05-04 13:52 | 45.42200 | 10.09330 | 32077 ft | 427 kts | 38° |
| 2026-05-04 13:53 | 45.46791 | 10.14614 | 32078 ft | 428 kts | 38° |
| 2026-05-04 13:53 | 45.51416 | 10.19951 | 32067 ft | 427 kts | 39° |
| 2026-05-04 13:54 | 45.58341 | 10.27980 | 32067 ft | 428 kts | 39° |
| 2026-05-04 13:55 | 45.65252 | 10.36036 | 32068 ft | 427 kts | 39° |
| 2026-05-04 13:55 | 45.72139 | 10.44072 | 32082 ft | 428 kts | 39° |
| 2026-05-04 13:56 | 45.76751 | 10.49464 | 32080 ft | 428 kts | 39° |
| 2026-05-04 13:57 | 45.83659 | 10.57559 | 32077 ft | 428 kts | 39° |
| 2026-05-04 13:58 | 45.92851 | 10.68317 | 32084 ft | 428 kts | 35° |
| 2026-05-04 13:58 | 46.00619 | 10.74553 | 32059 ft | 426 kts | 27° |
| 2026-05-04 13:59 | 46.05845 | 10.78573 | 32061 ft | 426 kts | 27° |
| 2026-05-04 14:00 | 46.13661 | 10.84586 | 32110 ft | 426 kts | 27° |
| 2026-05-04 14:00 | 46.21497 | 10.90656 | 32148 ft | 426 kts | 28° |
| 2026-05-04 14:01 | 46.26711 | 10.94712 | 32186 ft | 425 kts | 28° |
| 2026-05-04 14:02 | 46.34491 | 11.00774 | 32202 ft | 426 kts | 27° |
| 2026-05-04 14:02 | 46.39783 | 11.04591 | 32192 ft | 424 kts | 18° |
| 2026-05-04 14:02 | 46.42617 | 11.05726 | 32013 ft | 423 kts | 8° |
| 2026-05-04 14:03 | 46.45530 | 11.06166 | 32016 ft | 420 kts | 359° |
| 2026-05-04 14:03 | 46.51353 | 11.05786 | 32019 ft | 419 kts | 355° |
| 2026-05-04 14:04 | 46.60042 | 11.05146 | 32023 ft | 419 kts | 355° |
| 2026-05-04 14:04 | 46.65599 | 11.04755 | 32026 ft | 419 kts | 355° |
| 2026-05-04 14:05 | 46.74334 | 11.04117 | 32028 ft | 419 kts | 355° |
| 2026-05-04 14:06 | 46.80158 | 11.03665 | 32032 ft | 419 kts | 353° |
| 2026-05-04 14:06 | 46.85896 | 11.02736 | 32020 ft | 417 kts | 349° |
| 2026-05-04 14:07 | 46.91641 | 11.01499 | 32012 ft | 417 kts | 349° |
| 2026-05-04 14:07 | 46.97442 | 11.01279 | 32005 ft | 421 kts | 4° |
| 2026-05-04 14:08 | 47.03271 | 11.02177 | 31993 ft | 421 kts | 4° |
| 2026-05-04 14:08 | 47.09104 | 11.03085 | 31999 ft | 421 kts | 4° |
| 2026-05-04 14:09 | 47.17803 | 11.04404 | 31987 ft | 421 kts | 4° |
| 2026-05-04 14:10 | 47.26535 | 11.05730 | 31968 ft | 421 kts | 4° |
| 2026-05-04 14:10 | 47.32355 | 11.06628 | 31967 ft | 421 kts | 4° |
| 2026-05-04 14:11 | 47.38132 | 11.07524 | 31957 ft | 420 kts | 4° |
| 2026-05-04 14:11 | 47.46851 | 11.08856 | 31947 ft | 420 kts | 4° |
| 2026-05-04 14:12 | 47.52657 | 11.09753 | 31952 ft | 419 kts | 4° |
| 2026-05-04 14:12 | 47.58294 | 11.11950 | 31949 ft | 422 kts | 24° |
| 2026-05-04 14:13 | 47.60873 | 11.14018 | 31952 ft | 422 kts | 30° |
| 2026-05-04 14:13 | 47.65908 | 11.18403 | 31946 ft | 423 kts | 30° |
| 2026-05-04 14:13 | 47.68482 | 11.20637 | 31598 ft | 434 kts | 29° |
| 2026-05-04 14:14 | 47.71100 | 11.22904 | 30416 ft | 437 kts | 30° |
| 2026-05-04 14:14 | 47.76544 | 11.26676 | 28229 ft | 427 kts | 19° |
| 2026-05-04 14:14 | 47.79317 | 11.28205 | 27245 ft | 422 kts | 19° |
| 2026-05-04 14:15 | 47.84734 | 11.31234 | 25404 ft | 410 kts | 19° |
| 2026-05-04 14:15 | 47.90064 | 11.33578 | 23709 ft | 395 kts | 2° |
| 2026-05-04 14:16 | 47.95487 | 11.34056 | 21984 ft | 382 kts | 360° |
| 2026-05-04 14:16 | 47.98078 | 11.34192 | 21572 ft | 367 kts | 359° |
| 2026-05-04 14:17 | 48.03230 | 11.34415 | 19398 ft | 376 kts | 359° |
| 2026-05-04 14:17 | 48.05862 | 11.34504 | 18331 ft | 380 kts | 359° |
| 2026-05-04 14:17 | 48.11194 | 11.34644 | 16058 ft | 384 kts | 359° |
| 2026-05-04 14:18 | 48.13824 | 11.34704 | 15070 ft | 382 kts | 359° |
| 2026-05-04 14:18 | 48.19095 | 11.34796 | 13083 ft | 375 kts | 359° |
| 2026-05-04 14:19 | 48.24253 | 11.34871 | 11043 ft | 366 kts | 359° |
| 2026-05-04 14:19 | 48.26780 | 11.34909 | 10070 ft | 360 kts | 359° |
| 2026-05-04 14:19 | 48.29266 | 11.34952 | 9041 ft | 355 kts | 0° |
| 2026-05-04 14:19 | 48.31661 | 11.35607 | 8016 ft | 349 kts | 24° |
| 2026-05-04 14:20 | 48.33538 | 11.37702 | 7119 ft | 339 kts | 54° |
| 2026-05-04 14:20 | 48.34383 | 11.40771 | 7025 ft | 302 kts | 86° |
| 2026-05-04 14:20 | 48.34102 | 11.43727 | 7032 ft | 281 kts | 112° |
| 2026-05-04 14:21 | 48.32626 | 11.49067 | 6888 ft | 267 kts | 115° |
| 2026-05-04 14:21 | 48.32223 | 11.51770 | 6347 ft | 268 kts | 91° |
| 2026-05-04 14:21 | 48.32389 | 11.54590 | 5576 ft | 270 kts | 82° |
| 2026-05-04 14:21 | 48.32656 | 11.57295 | 5087 ft | 250 kts | 82° |
| 2026-05-04 14:22 | 48.32864 | 11.59759 | 4973 ft | 249 kts | 83° |
| 2026-05-04 14:22 | 48.33089 | 11.62610 | 4973 ft | 295 kts | 83° |
| 2026-05-04 14:22 | 48.33340 | 11.65808 | 4979 ft | 320 kts | 83° |
| 2026-05-04 14:22 | 48.33588 | 11.68979 | 4970 ft | 286 kts | 83° |
| 2026-05-04 14:23 | 48.33832 | 11.74663 | 4974 ft | 270 kts | 100° |
| 2026-05-04 14:23 | 48.33146 | 11.77264 | 4982 ft | 270 kts | 124° |
| 2026-05-04 14:23 | 48.31809 | 11.79213 | 4981 ft | 270 kts | 149° |
| 2026-05-04 14:24 | 48.30044 | 11.80147 | 4985 ft | 271 kts | 173° |
| 2026-05-04 14:24 | 48.28183 | 11.80383 | 4983 ft | 273 kts | 175° |
| 2026-05-04 14:24 | 48.26292 | 11.80597 | 4981 ft | 273 kts | 177° |
| 2026-05-04 14:24 | 48.24436 | 11.80126 | 4974 ft | 274 kts | 204° |
| 2026-05-04 14:25 | 48.22932 | 11.78407 | 4985 ft | 274 kts | 232° |
| 2026-05-04 14:25 | 48.21862 | 11.72980 | 4986 ft | 276 kts | 264° |
| 2026-05-04 14:25 | 48.21666 | 11.70122 | 4980 ft | 275 kts | 264° |
| 2026-05-04 14:26 | 48.21478 | 11.67262 | 4984 ft | 276 kts | 264° |
| 2026-05-04 14:26 | 48.21292 | 11.64407 | 4988 ft | 275 kts | 264° |
| 2026-05-04 14:26 | 48.21107 | 11.61555 | 4987 ft | 275 kts | 264° |
| 2026-05-04 14:26 | 48.20923 | 11.58740 | 4991 ft | 275 kts | 264° |
| 2026-05-04 14:27 | 48.20736 | 11.55887 | 4991 ft | 275 kts | 264° |
| 2026-05-04 14:27 | 48.20547 | 11.53034 | 5006 ft | 275 kts | 264° |
| 2026-05-04 14:27 | 48.20358 | 11.50179 | 5006 ft | 275 kts | 264° |
| 2026-05-04 14:27 | 48.20172 | 11.47332 | 5006 ft | 272 kts | 265° |
| 2026-05-04 14:28 | 48.20323 | 11.44625 | 5004 ft | 254 kts | 290° |
| 2026-05-04 14:28 | 48.21272 | 11.42528 | 5007 ft | 241 kts | 322° |
| 2026-05-04 14:28 | 48.22768 | 11.41490 | 5015 ft | 238 kts | 349° |
| 2026-05-04 14:28 | 48.24412 | 11.41110 | 5015 ft | 240 kts | 354° |
| 2026-05-04 14:29 | 48.27699 | 11.40687 | 5000 ft | 238 kts | 9° |
| 2026-05-04 14:29 | 48.30286 | 11.43503 | 4999 ft | 237 kts | 53° |
| 2026-05-04 14:30 | 48.31269 | 11.45496 | 4966 ft | 238 kts | 56° |
| 2026-05-04 14:30 | 48.31907 | 11.47751 | 4789 ft | 236 kts | 81° |
| 2026-05-04 14:30 | 48.32297 | 11.52667 | 4391 ft | 239 kts | 83° |
| 2026-05-04 14:31 | 48.32496 | 11.55155 | 4073 ft | 240 kts | 83° |
| 2026-05-04 14:31 | 48.32887 | 11.60088 | 3453 ft | 228 kts | 83° |
| 2026-05-04 14:32 | 48.33229 | 11.64420 | 2906 ft | 196 kts | 83° |
| 2026-05-04 14:32 | 48.33382 | 11.66362 | 2678 ft | 177 kts | 83° |
| 2026-05-04 14:32 | 48.33518 | 11.68089 | 2453 ft | 157 kts | 83° |
| 2026-05-04 14:32 | 48.33639 | 11.69638 | 2242 ft | 143 kts | 83° |
| 2026-05-04 14:33 | 48.33753 | 11.71090 | 2051 ft | 138 kts | 83° |
| 2026-05-04 14:33 | 48.33871 | 11.72509 | 1885 ft | 137 kts | 81° |
| 2026-05-04 14:33 | 48.33988 | 11.73926 | 1737 ft | 136 kts | 83° |
| 2026-05-04 14:33 | 48.34092 | 11.75325 | 1518 ft | 134 kts | 82° |
| 2026-05-04 14:34 | 48.34181 | 11.76592 | 1487 ft | 109 kts | 83° |
| 2026-05-04 14:34 | 48.34251 | 11.77494 | 1476 ft | 71 kts | 84° |
| 2026-05-04 14:34 | 48.34297 | 11.78156 | 1477 ft | 57 kts | 83° |
| 2026-05-04 14:34 | 48.34345 | 11.78703 | 1486 ft | 49 kts | 84° |
| 2026-05-04 14:35 | 48.34425 | 11.79148 | 1478 ft | 40 kts | 61° |
| 2026-05-04 14:35 | 48.34520 | 11.79338 | 1481 ft | 16 kts | 49° |
| 2026-05-04 14:35 | 48.34594 | 11.79482 | 1473 ft | 18 kts | 54° |
| 2026-05-04 14:35 | 48.34673 | 11.79642 | 1473 ft | 20 kts | 53° |
| 2026-05-04 14:36 | 48.34782 | 11.79708 | 1472 ft | 18 kts | 355° |
| 2026-05-04 14:36 | 48.34912 | 11.79683 | 1486 ft | 18 kts | 351° |
| 2026-05-04 14:36 | 48.35037 | 11.79662 | 1485 ft | 19 kts | 353° |
| 2026-05-04 14:36 | 48.35107 | 11.79780 | 1485 ft | 18 kts | 81° |
| 2026-05-04 14:37 | 48.35122 | 11.79976 | 1481 ft | 20 kts | 84° |
| 2026-05-04 14:37 | 48.35144 | 11.80182 | 1476 ft | 15 kts | 56° |
| 2026-05-04 14:37 | 48.35201 | 11.80186 | 1485 ft | 7 kts | 355° |
| 2026-05-04 14:37 | 48.35254 | 11.80178 | 1480 ft | 10 kts | 353° |
| 2026-05-04 14:38 | 48.35350 | 11.80161 | 1478 ft | 17 kts | 353° |
| 2026-05-04 14:38 | 48.35458 | 11.80131 | 1484 ft | 10 kts | 351° |
| 2026-05-04 14:38 | 48.35470 | 11.80087 | 1485 ft | 2 kts | 277° |
| 2026-05-04 14:38 | 48.35469 | 11.80066 | 1484 ft | 2 kts | 264° |
| 2026-05-04 14:39 | 48.35468 | 11.80053 | 1485 ft | 1 kts | 264° |
| 2026-05-04 14:39 | 48.35466 | 11.80027 | 1485 ft | 1 kts | 263° |
| 2026-05-04 14:39 | 48.35466 | 11.80019 | 1485 ft | 0 kts | 263° |
| 2026-05-04 14:40 | 48.35465 | 11.80014 | 1485 ft | 0 kts | 263° |